.
WxDataArchive / Data Records for 2012-12-28
2012-12-27 December 2012 2012-12-29

Data Records for Friday, 28 December 2012

Time	Temp	Chill	HIndex	Humid	Dewpt	 Wind 	HiWind	WindDir	Rain 	Barom 
-----	----	-----	------	-----	-----	------	------	-------	-----	----- 
00:00	27.9	27.9	27.9	86	24.3	0	0	---	0.00	30.169 
00:05	27.8	27.8	27.8	86	24.2	0	0	---	0.00	30.169 
00:10	27.8	27.8	27.8	86	24.2	0	0	---	0.00	30.169 
00:15	27.8	27.8	27.8	86	24.2	0	0	---	0.00	30.166 
00:20	27.8	27.8	27.8	86	24.2	0	0	---	0.00	30.166 
00:25	27.6	27.6	27.6	86	24.0	0	0	---	0.00	30.166 
00:30	27.6	27.6	27.6	86	24.0	0	0	---	0.00	30.165 
00:35	27.6	27.6	27.6	86	24.0	0	0	---	0.00	30.165 
00:40	27.6	27.6	27.6	86	24.0	0	0	---	0.00	30.165 
00:45	27.5	27.5	27.5	87	24.1	0	0	---	0.00	30.161 
00:50	27.5	27.5	27.5	87	24.1	0	0	---	0.00	30.161 
00:55	27.3	27.3	27.3	87	24.0	0	0	---	0.00	30.161 
01:00	27.2	27.2	27.2	87	23.9	0	0	---	0.00	30.156 
01:05	27.0	27.0	27.0	87	23.7	0	0	---	0.00	30.156 
01:10	26.9	26.9	26.9	87	23.6	0	0	---	0.00	30.156 
01:15	26.7	26.7	26.7	87	23.4	0	0	---	0.00	30.150 
01:20	26.6	26.6	26.6	87	23.3	0	0	---	0.00	30.150 
01:25	26.4	26.4	26.4	87	23.1	0	0	---	0.00	30.150 
01:30	26.1	26.1	26.1	87	22.8	0	0	---	0.00	30.150 
01:35	25.8	25.8	25.8	88	22.7	0	0	---	0.00	30.150 
01:40	25.6	25.6	25.6	88	22.5	0	0	---	0.00	30.150 
01:45	25.3	25.3	25.3	88	22.3	0	0	---	0.00	30.159 
01:50	25.1	25.1	25.1	88	22.1	0	0	---	0.00	30.159 
01:55	24.8	24.8	24.8	88	21.8	0	0	---	0.00	30.159 
02:00	24.5	24.5	24.5	88	21.5	0	0	---	0.00	30.161 
02:05	24.2	24.2	24.2	88	21.2	0	0	---	0.00	30.161 
02:10	23.9	23.9	23.9	88	20.9	0	0	---	0.00	30.161 
02:15	23.8	23.8	23.8	88	20.8	0	0	---	0.00	30.160 
02:20	23.5	23.5	23.5	88	20.5	0	0	---	0.00	30.160 
02:25	23.3	23.3	23.3	88	20.3	0	0	---	0.00	30.160 
02:30	23.0	23.0	23.0	88	20.0	0	0	---	0.00	30.163 
02:35	22.9	22.9	22.9	88	19.9	0	0	---	0.00	30.163 
02:40	22.7	22.7	22.7	88	19.7	0	0	---	0.00	30.163 
02:45	22.5	22.5	22.5	88	19.5	0	0	---	0.00	30.169 
02:50	22.2	22.2	22.2	88	19.2	0	0	---	0.00	30.169 
02:55	22.1	22.1	22.1	88	19.1	0	0	---	0.00	30.169 
03:00	21.9	21.9	21.9	88	18.9	0	0	---	0.00	30.175 
03:05	21.8	21.8	21.8	89	19.1	0	0	---	0.00	30.175 
03:10	21.6	21.6	21.6	89	18.9	0	0	---	0.00	30.175 
03:15	21.6	21.6	21.6	89	18.9	0	0	---	0.00	30.166 
03:20	21.4	21.4	21.4	89	18.7	0	0	---	0.00	30.166 
03:25	21.3	21.3	21.3	89	18.6	0	0	---	0.00	30.166 
03:30	21.3	21.3	21.3	89	18.6	0	0	---	0.00	30.169 
03:35	21.1	21.1	21.1	89	18.4	0	0	---	0.00	30.169 
03:40	21.1	21.1	21.1	89	18.4	0	0	---	0.00	30.169 
03:45	21.3	21.3	21.3	89	18.6	0	0	---	0.00	30.165 
03:50	21.3	21.3	21.3	89	18.6	0	0	---	0.00	30.165 
03:55	21.1	21.1	21.1	89	18.4	0	0	---	0.00	30.165 
04:00	21.1	21.1	21.1	89	18.4	0	0	---	0.00	30.162 
04:05	21.1	21.1	21.1	90	18.6	0	0	---	0.00	30.162 
04:10	21.1	21.1	21.1	89	18.4	0	0	---	0.00	30.162 
04:15	21.1	21.1	21.1	90	18.6	0	0	---	0.00	30.160 
04:20	21.1	21.1	21.1	90	18.6	0	0	---	0.00	30.160 
04:25	21.3	21.3	21.3	90	18.8	0	0	---	0.00	30.160 
04:30	21.3	21.3	21.3	90	18.8	0	0	---	0.00	30.155 
04:35	21.3	21.3	21.3	90	18.8	0	0	---	0.00	30.155 
04:40	21.1	21.1	21.1	90	18.6	0	0	---	0.00	30.155 
04:45	21.3	21.3	21.3	90	18.8	0	0	---	0.00	30.155 
04:50	21.3	21.3	21.3	90	18.8	0	0	---	0.00	30.155 
04:55	21.3	21.3	21.3	90	18.8	0	0	---	0.00	30.155 
05:00	21.3	21.3	21.3	90	18.8	0	0	---	0.00	30.152 
05:05	21.4	21.4	21.4	90	18.9	0	0	---	0.00	30.152 
05:10	21.4	21.4	21.4	90	18.9	0	0	---	0.00	30.152 
05:15	21.6	21.6	21.6	90	19.1	0	0	---	0.00	30.143 
05:20	21.8	21.8	21.8	91	19.6	0	0	---	0.00	30.143 
05:25	21.9	21.9	21.9	91	19.7	0	0	---	0.00	30.143 
05:30	22.1	22.1	22.1	91	19.9	0	0	---	0.00	30.141 
05:35	22.2	22.2	22.2	91	20.0	0	0	---	0.00	30.141 
05:40	22.2	22.2	22.2	91	20.0	0	0	---	0.00	30.141 
05:45	22.2	22.2	22.2	91	20.0	0	0	---	0.00	30.136 
05:50	22.2	22.2	22.2	91	20.0	0	0	---	0.00	30.136 
05:55	22.2	22.2	22.2	91	20.0	0	0	---	0.00	30.136 
06:00	22.2	22.2	22.2	91	20.0	0	0	---	0.00	30.130 
06:05	22.1	22.1	22.1	91	19.9	0	0	---	0.00	30.130 
06:10	21.9	21.9	21.9	91	19.7	0	0	---	0.00	30.130 
06:15	21.8	21.8	21.8	91	19.6	0	0	---	0.00	30.128 
06:20	21.6	21.6	21.6	91	19.4	0	0	---	0.00	30.128 
06:25	21.6	21.6	21.6	91	19.4	0	0	---	0.00	30.128 
06:30	21.4	21.4	21.4	91	19.2	0	0	---	0.00	30.123 
06:35	21.3	21.3	21.3	91	19.1	0	0	---	0.00	30.123 
06:40	21.1	21.1	21.1	91	18.9	0	0	---	0.00	30.123 
06:45	21.0	21.0	21.0	91	18.8	0	0	---	0.00	30.132 
06:50	21.0	21.0	21.0	91	18.8	0	0	---	0.00	30.132 
06:55	21.0	21.0	21.0	91	18.8	0	0	---	0.00	30.132 
07:00	21.1	21.1	21.1	91	18.9	0	0	---	0.00	30.131 
07:05	21.3	21.3	21.3	91	19.1	0	1	270	0.00	30.131 
07:10	21.3	21.3	21.3	91	19.1	0	0	---	0.00	30.131 
07:15	21.4	21.4	21.4	91	19.2	0	0	---	0.00	30.118 
07:20	21.6	21.6	21.6	91	19.4	0	1	270	0.00	30.118 
07:25	21.8	21.8	21.8	92	19.8	0	0	---	0.00	30.118 
07:30	22.1	22.1	22.1	92	20.1	0	1	270	0.00	30.120 
07:35	22.2	22.2	22.2	92	20.2	0	1	270	0.00	30.120 
07:40	22.4	22.4	22.4	92	20.4	0	2	270	0.00	30.120 
07:45	22.4	22.4	22.4	92	20.4	0	1	270	0.00	30.130 
07:50	22.4	22.4	22.4	92	20.4	0	0	---	0.00	30.130 
07:55	22.4	22.4	22.4	92	20.4	0	1	270	0.00	30.130 
08:00	22.4	22.4	22.4	92	20.4	0	0	---	0.00	30.134 
08:05	22.4	22.4	22.4	92	20.4	0	0	---	0.00	30.134 
08:10	22.5	22.5	22.5	92	20.5	0	0	---	0.00	30.134 
08:15	22.5	22.5	22.5	92	20.5	0	0	---	0.00	30.144 
08:20	22.7	22.7	22.7	92	20.7	0	1	270	0.00	30.144 
08:25	22.7	22.7	22.7	92	20.7	0	0	---	0.00	30.144 
08:30	22.7	22.7	22.7	92	20.7	0	0	---	0.00	30.146 
08:35	22.9	22.9	22.9	92	20.9	0	0	---	0.00	30.146 
08:40	22.9	22.9	22.9	92	20.9	0	0	---	0.00	30.146 
08:45	22.9	22.9	22.9	92	20.9	0	1	270	0.00	30.148 
08:50	23.0	23.0	23.0	92	21.0	0	0	---	0.00	30.148 
08:55	23.0	23.0	23.0	92	21.0	0	0	---	0.00	30.148 
09:00	23.2	23.2	23.2	92	21.2	0	0	---	0.00	30.156 
09:05	23.3	23.3	23.3	92	21.3	0	0	---	0.00	30.156 
09:10	23.5	23.5	23.5	92	21.5	0	0	---	0.00	30.156 
09:15	23.5	23.5	23.5	92	21.5	0	0	---	0.00	30.164 
09:20	23.8	23.8	23.8	92	21.8	0	0	---	0.00	30.164 
09:25	23.9	23.9	23.9	92	21.9	0	0	---	0.00	30.164 
09:30	24.2	24.2	24.2	92	22.2	0	0	---	0.00	30.175 
09:35	24.4	24.4	24.4	92	22.4	0	0	---	0.00	30.175 
09:40	24.4	24.4	24.4	92	22.4	0	0	---	0.00	30.175 
09:45	24.5	24.5	24.5	92	22.5	0	1	270	0.00	30.178 
09:50	24.5	24.5	24.5	92	22.5	0	1	270	0.00	30.178 
09:55	24.5	24.5	24.5	92	22.5	0	0	---	0.00	30.178 
10:00	24.7	24.7	24.7	92	22.7	0	0	---	0.00	30.185 
10:05	24.8	24.8	24.8	92	22.8	0	0	---	0.00	30.185 
10:10	25.0	25.0	25.0	92	23.0	0	2	270	0.00	30.185 
10:15	25.1	25.1	25.1	92	23.1	0	1	270	0.00	30.181 
10:20	25.3	25.3	25.3	92	23.3	0	0	---	0.00	30.181 
10:25	25.4	25.4	25.4	92	23.4	0	0	---	0.00	30.181 
10:30	25.6	25.6	25.6	92	23.6	0	2	270	0.00	30.179 
10:35	25.7	25.7	25.7	92	23.7	0	2	270	0.00	30.179 
10:40	25.8	25.8	25.8	92	23.8	0	1	270	0.00	30.179 
10:45	25.8	25.8	25.8	92	23.8	0	2	270	0.00	30.182 
10:50	26.1	26.1	26.1	92	24.1	0	1	270	0.00	30.182 
10:55	26.6	26.6	26.6	92	24.6	0	1	270	0.00	30.182 
11:00	27.2	27.2	27.2	92	25.2	0	1	270	0.00	30.191 
11:05	27.5	27.5	27.5	92	25.5	0	1	270	0.00	30.191 
11:10	27.8	27.8	27.8	92	25.8	0	2	270	0.00	30.191 
11:15	27.9	27.9	27.9	91	25.6	1	3	270	0.00	30.173 
11:20	28.2	28.2	28.2	91	25.9	0	3	270	0.00	30.173 
11:25	28.5	28.5	28.5	91	26.2	1	3	270	0.00	30.173 
11:30	28.7	28.7	28.7	90	26.1	1	4	270	0.00	30.148 
11:35	28.7	28.7	28.7	89	25.9	2	5	112	0.00	30.148 
11:40	28.5	28.5	28.5	89	25.7	1	6	112	0.00	30.148 
11:45	28.8	28.8	28.8	88	25.7	0	2	112	0.00	30.139 
11:50	29.3	29.3	29.3	88	26.2	0	2	112	0.00	30.139 
11:55	29.1	29.1	29.1	87	25.7	2	4	112	0.00	30.139 
12:00	29.1	29.1	29.1	87	25.7	1	4	112	0.00	30.126 
12:05	29.4	29.4	29.4	87	26.0	1	3	112	0.00	30.126 
12:10	29.8	29.8	29.8	87	26.4	0	3	112	0.00	30.126 
12:15	30.1	30.1	30.1	86	26.4	1	3	112	0.00	30.121 
12:20	30.3	30.3	30.3	85	26.3	1	4	90	0.00	30.121 
12:25	30.4	30.4	30.4	85	26.4	1	5	135	0.00	30.121 
12:30	30.7	30.7	30.7	84	26.4	1	3	112	0.00	30.101 
12:35	30.7	30.7	30.7	84	26.4	1	4	90	0.00	30.101 
12:40	30.6	30.6	30.6	83	26.1	1	4	90	0.01	30.101 
12:45	30.4	30.4	30.4	82	25.6	1	3	90	0.00	30.094 
12:50	30.4	30.4	30.4	82	25.6	1	3	90	0.00	30.094 
12:55	30.3	30.3	30.3	82	25.5	1	3	112	0.00	30.094 
13:00	30.1	30.1	30.1	82	25.3	1	2	112	0.00	30.078 
13:05	30.1	30.1	30.1	82	25.3	1	3	112	0.01	30.078 
13:10	30.1	30.1	30.1	82	25.3	1	4	112	0.00	30.078 
13:15	30.1	30.1	30.1	82	25.3	1	4	90	0.00	30.066 
13:20	30.1	30.1	30.1	82	25.3	1	4	90	0.00	30.066 
13:25	30.1	30.1	30.1	82	25.3	1	3	90	0.00	30.066 
13:30	30.3	30.3	30.3	81	25.2	1	3	90	0.00	30.062 
13:35	30.4	30.4	30.4	81	25.3	1	3	90	0.00	30.062 
13:40	30.6	30.6	30.6	81	25.5	0	2	90	0.00	30.062 
13:45	30.6	30.6	30.6	81	25.5	2	6	90	0.00	30.043 
13:50	30.3	30.3	30.3	80	24.9	2	6	90	0.00	30.043 
13:55	30.3	30.3	30.3	80	24.9	1	4	112	0.01	30.043 
14:00	30.3	30.3	30.3	79	24.6	1	4	112	0.00	30.035 
14:05	30.3	30.3	30.3	80	24.9	1	6	90	0.00	30.035 
14:10	30.3	30.3	30.3	80	24.9	1	4	90	0.00	30.035 
14:15	30.3	30.3	30.3	80	24.9	0	2	90	0.00	30.053 
14:20	30.3	30.3	30.3	80	24.9	1	3	90	0.00	30.053 
14:25	30.1	30.1	30.1	80	24.7	1	4	90	0.00	30.053 
14:30	30.1	30.1	30.1	80	24.7	1	3	112	0.00	30.051 
14:35	30.1	30.1	30.1	80	24.7	1	3	112	0.00	30.051 
14:40	30.0	30.0	30.0	80	24.6	1	3	112	0.00	30.051 
14:45	30.0	30.0	30.0	80	24.6	1	3	112	0.00	30.049 
14:50	30.0	30.0	30.0	80	24.6	1	3	112	0.00	30.049 
14:55	30.0	30.0	30.0	80	24.6	1	3	112	0.00	30.049 
15:00	29.8	29.8	29.8	80	24.4	2	3	112	0.00	30.040 
15:05	29.7	29.7	29.7	80	24.3	3	6	112	0.00	30.040 
15:10	29.5	29.5	29.5	80	24.1	2	5	90	0.00	30.040 
15:15	29.5	29.5	29.5	81	24.4	2	4	90	0.00	30.030 
15:20	29.7	29.7	29.7	80	24.3	2	6	90	0.00	30.030 
15:25	29.7	29.7	29.7	80	24.3	2	5	90	0.00	30.030 
15:30	29.7	29.7	29.7	80	24.3	2	6	90	0.00	30.029 
15:35	29.7	29.7	29.7	80	24.3	2	5	90	0.00	30.029 
15:40	29.7	29.7	29.7	80	24.3	2	4	90	0.01	30.029 
15:45	29.7	29.7	29.7	80	24.3	2	5	90	0.00	30.019 
15:50	29.7	29.7	29.7	80	24.3	3	7	90	0.00	30.019 
15:55	29.5	29.5	29.5	80	24.1	3	6	90	0.00	30.019 
16:00	29.5	29.5	29.5	81	24.4	3	5	90	0.00	30.008 
16:05	29.5	29.5	29.5	81	24.4	2	5	90	0.00	30.008 
16:10	29.5	29.5	29.5	81	24.4	3	6	90	0.00	30.008 
16:15	29.4	29.4	29.4	81	24.3	3	7	90	0.00	30.019 
16:20	29.4	29.4	29.4	81	24.3	2	5	90	0.00	30.019 
16:25	29.4	29.4	29.4	81	24.3	1	4	90	0.00	30.019 
16:30	29.4	29.4	29.4	81	24.3	1	5	90	0.00	30.020 
16:35	29.4	29.4	29.4	81	24.3	2	7	90	0.00	30.020 
16:40	29.4	29.4	29.4	81	24.3	2	6	90	0.00	30.020 
16:45	29.4	29.4	29.4	81	24.3	2	7	90	0.00	30.011 
16:50	29.3	29.3	29.3	81	24.2	3	6	90	0.00	30.011 
16:55	29.1	29.1	29.1	82	24.3	3	7	90	0.00	30.011 
17:00	29.1	29.1	29.1	81	24.0	3	6	90	0.00	30.010 
17:05	29.1	29.1	29.1	81	24.0	3	7	90	0.00	30.010 
17:10	29.0	29.0	29.0	82	24.2	3	6	90	0.00	30.010 
17:15	29.0	29.0	29.0	82	24.2	2	6	90	0.00	30.007 
17:20	29.0	29.0	29.0	82	24.2	1	4	90	0.00	30.007 
17:25	29.0	29.0	29.0	83	24.5	1	3	90	0.00	30.007 
17:30	29.0	29.0	29.0	83	24.5	3	6	112	0.00	30.016 
17:35	29.0	29.0	29.0	85	25.1	1	5	112	0.00	30.016 
17:40	29.0	29.0	29.0	83	24.5	1	6	112	0.00	30.016 
17:45	29.0	29.0	29.0	83	24.5	1	3	112	0.00	30.019 
17:50	28.8	28.8	28.8	84	24.6	1	3	112	0.00	30.019 
17:55	28.8	28.8	28.8	84	24.6	0	2	135	0.00	30.019 
18:00	28.8	28.8	28.8	84	24.6	2	4	135	0.00	30.016 
18:05	28.7	28.7	28.7	84	24.5	1	4	112	0.00	30.016 
18:10	28.7	28.7	28.7	84	24.5	1	3	112	0.00	30.016 
18:15	28.5	28.5	28.5	84	24.3	1	3	112	0.00	30.014 
18:20	28.5	28.5	28.5	84	24.3	0	4	112	0.00	30.014 
18:25	28.5	28.5	28.5	84	24.3	0	1	112	0.00	30.014 
18:30	28.5	28.5	28.5	84	24.3	0	3	112	0.00	30.019 
18:35	28.4	28.4	28.4	84	24.2	0	1	112	0.00	30.019 
18:40	28.4	28.4	28.4	84	24.2	0	2	112	0.00	30.019 
18:45	28.4	28.4	28.4	84	24.2	0	1	112	0.00	30.022 
18:50	28.4	28.4	28.4	84	24.2	0	2	112	0.00	30.022 
18:55	28.4	28.4	28.4	84	24.2	0	2	112	0.00	30.022 
19:00	28.4	28.4	28.4	84	24.2	0	2	112	0.00	30.019 
19:05	28.4	28.4	28.4	84	24.2	0	1	112	0.00	30.019 
19:10	28.4	28.4	28.4	84	24.2	0	1	112	0.00	30.019 
19:15	28.4	28.4	28.4	84	24.2	0	2	112	0.00	30.005 
19:20	28.4	28.4	28.4	84	24.2	0	2	112	0.00	30.005 
19:25	28.4	28.4	28.4	84	24.2	1	3	112	0.00	30.005 
19:30	28.4	28.4	28.4	84	24.2	2	4	112	0.00	29.993 
19:35	28.4	28.4	28.4	84	24.2	1	3	112	0.00	29.993 
19:40	28.4	28.4	28.4	84	24.2	1	3	112	0.00	29.993 
19:45	28.4	28.4	28.4	84	24.2	1	2	112	0.00	29.992 
19:50	28.4	28.4	28.4	84	24.2	0	1	112	0.00	29.992 
19:55	28.4	28.4	28.4	84	24.2	0	2	112	0.00	29.992 
20:00	28.4	28.4	28.4	84	24.2	1	2	112	0.00	29.989 
20:05	28.4	28.4	28.4	84	24.2	1	3	112	0.00	29.989 
20:10	28.4	28.4	28.4	85	24.5	1	2	112	0.00	29.989 
20:15	28.4	28.4	28.4	85	24.5	1	3	112	0.00	29.974 
20:20	28.4	28.4	28.4	85	24.5	1	2	112	0.00	29.974 
20:25	28.4	28.4	28.4	85	24.5	2	4	112	0.00	29.974 
20:30	28.4	28.4	28.4	85	24.5	1	3	112	0.00	29.974 
20:35	28.4	28.4	28.4	85	24.5	1	3	112	0.00	29.974 
20:40	28.4	28.4	28.4	85	24.5	1	4	112	0.00	29.974 
20:45	28.4	28.4	28.4	86	24.8	1	4	112	0.00	29.969 
20:50	28.4	28.4	28.4	86	24.8	2	5	112	0.00	29.969 
20:55	28.4	28.4	28.4	86	24.8	3	6	90	0.00	29.969 
21:00	28.4	28.4	28.4	86	24.8	3	6	90	0.00	29.955 
21:05	28.4	28.4	28.4	85	24.5	2	7	90	0.00	29.955 
21:10	28.4	28.4	28.4	85	24.5	2	6	90	0.00	29.955 
21:15	28.4	28.4	28.4	85	24.5	2	7	112	0.00	29.949 
21:20	28.4	28.4	28.4	86	24.8	2	4	112	0.00	29.949 
21:25	28.4	28.4	28.4	85	24.5	3	5	90	0.00	29.949 
21:30	28.4	28.4	28.4	85	24.5	2	4	90	0.00	29.950 
21:35	28.4	28.4	28.4	86	24.8	1	5	68	0.00	29.950 
21:40	28.4	28.4	28.4	85	24.5	1	5	90	0.00	29.950 
21:45	28.4	28.4	28.4	86	24.8	1	3	90	0.00	29.945 
21:50	28.4	28.4	28.4	85	24.5	2	4	68	0.00	29.945 
21:55	28.4	28.4	28.4	85	24.5	2	5	90	0.00	29.945 
22:00	28.4	28.4	28.4	85	24.5	2	6	90	0.00	29.940 
22:05	28.4	28.4	28.4	85	24.5	2	5	90	0.00	29.940 
22:10	28.4	28.4	28.4	85	24.5	2	4	90	0.00	29.940 
22:15	28.4	28.4	28.4	85	24.5	1	3	68	0.00	29.934 
22:20	28.4	28.4	28.4	86	24.8	2	6	90	0.00	29.934 
22:25	28.4	28.4	28.4	86	24.8	2	5	90	0.00	29.934 
22:30	28.2	28.2	28.2	86	24.6	1	5	112	0.00	29.934 
22:35	28.2	28.2	28.2	86	24.6	2	4	112	0.00	29.934 
22:40	28.2	28.2	28.2	86	24.6	2	6	90	0.00	29.934 
22:45	28.2	28.2	28.2	86	24.6	1	5	90	0.00	29.931 
22:50	28.2	28.2	28.2	86	24.6	1	4	90	0.00	29.931 
22:55	28.2	28.2	28.2	87	24.8	1	4	68	0.00	29.931 
23:00	28.2	28.2	28.2	87	24.8	1	2	68	0.00	29.925 
23:05	28.1	28.1	28.1	87	24.7	2	6	90	0.00	29.925 
23:10	28.1	28.1	28.1	88	25.0	2	4	90	0.00	29.925 
23:15	28.1	28.1	28.1	88	25.0	2	4	90	0.00	29.919 
23:20	27.9	27.9	27.9	89	25.1	1	5	90	0.00	29.919 
23:25	27.9	27.9	27.9	89	25.1	2	5	90	0.00	29.919 
23:30	27.8	27.8	27.8	89	25.0	1	4	90	0.00	29.914 
23:35	27.8	27.8	27.8	90	25.3	1	3	90	0.00	29.914 
23:40	27.8	27.8	27.8	90	25.3	1	3	90	0.00	29.914 
23:45	27.8	27.8	27.8	90	25.3	1	4	112	0.00	29.906 
23:50	27.6	27.6	27.6	90	25.1	1	4	112	0.00	29.906 
23:55	27.6	27.6	27.6	91	25.3	1	2	112	0.00	29.906 

CoCoRaHS
IN-AL-39
A2 Web Hosting
Creative Commons License
GoDaddy
search engine by freefind advanced

loaded 2018-11-13 02:37:10 • last modified 2010-11-18 10:43:29
Privacy PolicyDisclaimer
• wx.awcolley.com is powered by PmWiki v.2002016 •
• all content (unless otherwise noted) © 2018 A W Colley